• Join FlightAware (Why Join?)
  • Login
  • US Flag 
11:00PM EDT


 

Airport Tracker/Info


-or-


 

Live Flight TrackerFlight Track Log ✈ LOF3518 ✈ 03-May-2012 ✈ KBDL - KPIT

Flight Track Log - Related Links

Times and Time Zones

All times are in EDT time to prevent confusion due to time zone crossing. See the LOF3518 flight status page for this flight to view local times or setup timezone preferences in your user account.

Time Position Orientation Groundspeed Altitude Reporting Facility
EDT Latitude Longitude Course Direction KTS MPH feet Rate Location/Type
11:26AM 41.9458 -72.7025 325° Northwest 153 176 700  Level Boston Center
11:28AM 42.0331 -72.7839 335° Northwest 217 250 5,000 2,340 Climbing Boston Center
11:29AM 42.0997 -72.8261 335° Northwest 231 266 7,600 2,340 Climbing Boston Center
11:30AM 42.1536 -72.8603 335° Northwest 237 273 9,700 1,740 Climbing Boston Center
11:31AM 42.2264 -72.9056 317° Northwest 248 285 11,100 1,140 Climbing Boston Center
11:32AM 42.2803 -72.9733 270° West 274 315 12,000 960 Climbing Boston Center
11:33AM 42.2797 -73.1081 263° West 279 321 13,100 960 Climbing Boston Center
11:34AM 42.2686 -73.2228 262° West 329 379 14,000 960 Climbing Boston Center
11:35AM 42.2550 -73.3572 263° West 365 420 15,100 1,140 Climbing Boston Center
11:36AM 42.2433 -73.4889 263° West 370 426 16,300 1,140 Climbing Boston Center
11:37AM 42.2317 -73.6206 262° West 370 426 17,400 1,020 Climbing Boston Center
11:38AM 42.2178 -73.7464 264° West 356 410 18,400 1,140 Climbing Boston Center
11:39AM 42.2056 -73.8947 265° West 356 410 19,700 1,440 Climbing Boston Center
11:40AM 42.1978 -74.0206 297° West 350 403 21,300 1,500 Climbing Boston Center
11:41AM 42.2378 -74.1256 267° West 329 379 22,800 1,380 Climbing Boston Center
11:42AM 42.2339 -74.2403 257° West 312 359 24,100 1,200 Climbing Boston Center
11:43AM 42.2133 -74.3575 258° West 312 359 25,300 1,080 Climbing Boston Center
11:44AM 42.1944 -74.4744 258° West 312 359 26,300 840 Climbing Boston Center
11:46AM 42.1578 -74.7069 259° West 306 352 28,000 540 Climbing New York Center
11:47AM 42.1389 -74.8372 257° West 332 382 28,000  Level New York Center
11:48AM 42.1128 -74.9867 259° West 371 427 28,000  Level New York Center
11:49AM 42.0911 -75.1306 260° West 397 457 28,000  Level New York Center
11:50AM 42.0739 -75.2581 259° West 397 457 28,000  Level New York Center
11:51AM 42.0536 -75.4017 260° West 397 457 28,000  Level New York Center
11:52AM 42.0331 -75.5539 261° West 407 468 28,000  Level New York Center
11:53AM 42.0144 -75.7061 260° West 412 474 28,000 -480 Level New York Center
11:54AM 41.9933 -75.8633 260° West 423 487 27,100 -960 Descending New York Center
11:55AM 41.9717 -76.0264 260° West 435 501 26,100 -1,080 Descending New York Center
11:56AM 41.9497 -76.1892 260° West 446 513 25,100 -1,020 Descending New York Center
11:57AM 41.9275 -76.3519 259° West 451 519 24,100 -600 Descending New York Center
11:58AM 41.9025 -76.5253 259° West 440 506 24,000 -60 Descending New York Center
12:00PM 41.8625 -76.8106 260° West 407 468 24,000  Level Cleveland Center
12:01PM 41.8425 -76.9594 259° West 412 474 24,000  Level Cleveland Center
12:02PM 41.8200 -77.1083 246° West 412 474 24,000  Level Cleveland Center
12:03PM 41.7739 -77.2475 245° Southwest 412 474 24,000  Level Cleveland Center
12:04PM 41.7258 -77.3864 244° Southwest 412 474 24,000  Level Cleveland Center
12:05PM 41.6753 -77.5222 245° Southwest 412 474 24,000 -120 Level Cleveland Center
12:06PM 41.6267 -77.6606 244° Southwest 412 474 23,800 -600 Descending Cleveland Center
12:07PM 41.5761 -77.8017 245° Southwest 418 481 22,900 -840 Descending Cleveland Center
12:08PM 41.5253 -77.9453 246° West 423 487 22,200 -480 Descending Cleveland Center
12:09PM 41.4783 -78.0858 245° Southwest 423 487 22,000 -120 Descending Cleveland Center
12:10PM 41.4292 -78.2236 245° Southwest 423 487 22,000  Level Cleveland Center
12:11PM 41.3819 -78.3608 244° Southwest 423 487 22,000  Level Cleveland Center
12:12PM 41.3322 -78.4981 244° Southwest 423 487 22,000  Level Cleveland Center
12:13PM 41.2825 -78.6322 245° Southwest 418 481 22,000  Level Cleveland Center
12:14PM 41.2347 -78.7689 245° Southwest 413 475 22,000  Level Cleveland Center
12:15PM 41.1867 -78.9028 244° Southwest 413 475 22,000 -300 Level Cleveland Center
12:16PM 41.1406 -79.0281 244° Southwest 413 475 21,500 -900 Descending Cleveland Center
12:17PM 41.0864 -79.1781 245° Southwest 413 475 20,300 -1,800 Descending Cleveland Center
12:18PM 41.0378 -79.3142 244° Southwest 413 475 17,900 -2,400 Descending Cleveland Center
12:19PM 40.9911 -79.4414 244° Southwest 407 468 15,600 -2,400 Descending Cleveland Center
12:20PM 40.9464 -79.5633 244° Southwest 387 445 13,100 -2,460 Descending Cleveland Center
12:21PM 40.9017 -79.6819 243° Southwest 375 432 10,700 -1,560 Descending Cleveland Center
12:22PM 40.8586 -79.7953 211° Southwest 364 419 10,000 -360 Descending Cleveland Center
12:23PM 40.7861 -79.8536 178° South 317 365 10,000  Level Cleveland Center
12:24PM 40.7028 -79.8492 170° South 286 329 10,000 -1,320 Level Cleveland Center
12:25PM 40.6275 -79.8308 166° South 281 323 7,400 -1,800 Descending Cleveland Center
12:26PM 40.5628 -79.8097 175° South 259 298 6,400 -1,200 Descending Cleveland Center
12:27PM 40.5003 -79.8022 247° West 245 282 5,000 -1,200 Descending Cleveland Center
12:28PM 40.4778 -79.8733 270° West 174 200 4,000 -540 Descending Cleveland Center
12:29PM 40.4781 -79.9525 270° West 179 206 4,000  Level Cleveland Center